Time;durP1;ratioP1;P1;durP2;ratioP2;P2;SDS_P1;SDS_P2;PMS_P1;PMS_P2;Temp;Humidity;BMP_temperature;BMP_pressure;BME280_temperature;BME280_humidity;BME280_pressure;Samples;Min_cycle;Max_cycle;Signal;HPM_P1;HPM_P2
2021/12/20 00:01:41;;;;;;;9.07;4.05;;;;;;;5.72;96.85;102829.25;5016038;28;20465;-77
2021/12/20 00:04:06;;;;;;;11.48;4.07;;;;;;;5.73;97.12;102825.81;5015978;28;20053;-81
2021/12/20 00:06:31;;;;;;;11.15;4.00;;;;;;;5.70;96.92;102813.91;5015649;28;20469;-81
2021/12/20 00:08:57;;;;;;;12.98;4.68;;;;;;;5.69;97.44;102824.97;5015806;28;20026;-80
2021/12/20 00:11:22;;;;;;;13.63;4.80;;;;;;;5.70;96.28;102828.41;5015628;28;20030;-81
2021/12/20 00:13:48;;;;;;;12.90;5.35;;;;;;;5.70;97.11;102823.28;5015768;28;20457;-81
2021/12/20 00:16:13;;;;;;;14.20;4.28;;;;;;;5.70;95.77;102824.16;5015795;28;20029;-81
2021/12/20 00:18:39;;;;;;;12.40;3.50;;;;;;;5.71;95.30;102813.03;5015756;28;20021;-82
2021/12/20 00:21:04;;;;;;;10.57;3.92;;;;;;;5.71;95.08;102818.16;5015416;28;20022;-80
2021/12/20 00:23:29;;;;;;;12.63;3.53;;;;;;;5.68;93.64;102825.84;5015473;28;20382;-80
2021/12/20 00:25:56;;;;;;;10.43;3.80;;;;;;;5.65;93.13;102825.03;5015256;28;20080;-80
2021/12/20 00:28:21;;;;;;;10.90;3.70;;;;;;;5.55;94.34;102805.50;5015563;28;20500;-81
2021/12/20 00:30:48;;;;;;;11.02;4.15;;;;;;;5.65;94.22;102812.22;5015473;28;20057;-81
2021/12/20 00:33:14;;;;;;;12.27;4.45;;;;;;;5.47;94.10;102790.19;5015466;28;20036;-81
2021/12/20 00:35:39;;;;;;;12.52;3.75;;;;;;;5.65;94.81;102819.91;5015177;28;20037;-80
2021/12/20 00:40:49;;;;;;;9.50;3.63;;;;;;;5.41;94.46;102783.44;5015409;28;20040;-81
2021/12/20 00:43:15;;;;;;;14.48;3.60;;;;;;;5.62;94.01;102817.41;5015309;28;20054;-80
2021/12/20 00:45:40;;;;;;;10.55;3.33;;;;;;;5.58;93.22;102823.41;5015350;28;20030;-81
2021/12/20 00:48:06;;;;;;;11.60;3.00;;;;;;;5.57;93.09;102817.44;5015188;28;20477;-82
2021/12/20 00:50:32;;;;;;;12.85;2.58;;;;;;;5.53;91.42;102807.25;5014770;28;20037;-82
2021/12/20 00:52:59;;;;;;;11.15;2.75;;;;;;;5.37;91.47;102786.03;5015260;28;20029;-77
2021/12/20 00:55:27;;;;;;;11.20;3.00;;;;;;;5.48;91.54;102820.09;5014639;28;20480;-81
2021/12/20 00:57:55;;;;;;;19.23;3.88;;;;;;;5.48;90.43;102815.81;5015206;28;20057;-80
2021/12/20 01:00:29;;;;;;;14.13;2.50;;;;;;;5.46;88.48;102804.72;5015122;28;20026;-79
2021/12/20 01:02:55;;;;;;;10.70;2.88;;;;;;;5.47;88.54;102806.44;5014889;28;20488;-80
2021/12/20 01:05:24;;;;;;;16.42;3.22;;;;;;;5.43;88.27;102806.47;5014797;28;20034;-81
2021/12/20 01:07:50;;;;;;;16.73;2.90;;;;;;;5.33;88.91;102787.78;5014589;28;20084;-82
2021/12/20 01:10:16;;;;;;;13.32;2.35;;;;;;;5.43;89.37;102809.03;5014891;28;20375;-82
2021/12/20 01:12:45;;;;;;;18.42;4.32;;;;;;;5.45;nan;102818.41;5015060;28;20018;-78
2021/12/20 01:15:15;;;;;;;19.08;3.55;;;;;;;5.33;88.44;102798.03;5014825;28;20055;-78
2021/12/20 01:17:40;;;;;;;13.70;2.47;;;;;;;5.35;89.72;102801.44;5014680;28;20029;-80
2021/12/20 01:20:07;;;;;;;16.45;2.75;;;;;;;5.46;87.93;102816.69;5014677;28;20029;-81
2021/12/20 01:22:33;;;;;;;17.98;2.92;;;;;;;5.44;88.95;102803.06;5014287;28;20552;-81
2021/12/20 01:24:58;;;;;;;13.90;2.53;;;;;;;5.49;89.20;102808.97;5014487;28;20038;-77
2021/12/20 01:27:23;;;;;;;19.13;2.65;;;;;;;5.46;89.29;102803.88;5014524;28;20025;-76
2021/12/20 01:29:49;;;;;;;18.30;3.92;;;;;;;5.51;88.67;102814.09;5014480;28;20150;-78
2021/12/20 01:32:15;;;;;;;19.10;3.50;;;;;;;5.51;88.85;102814.94;5013187;28;20030;-74
2021/12/20 01:34:40;;;;;;;20.60;3.42;;;;;;;5.49;88.64;102811.53;5014248;28;20040;-73
2021/12/20 01:37:05;;;;;;;13.50;2.95;;;;;;;5.47;87.76;102811.56;5013952;28;20018;-73
2021/12/20 01:39:31;;;;;;;18.83;3.15;;;;;;;5.38;86.75;102803.09;5013124;28;20030;-80
2021/12/20 01:41:58;;;;;;;12.80;2.33;;;;;;;5.43;86.64;102811.59;5014251;28;20037;-78
2021/12/20 01:44:23;;;;;;;20.15;3.08;;;;;;;5.41;85.89;102803.94;5014170;28;20022;-80
2021/12/20 01:46:48;;;;;;;14.75;4.18;;;;;;;5.38;85.24;102795.41;5014309;28;20025;-80
2021/12/20 01:49:16;;;;;;;13.00;2.70;;;;;;;5.29;85.13;102780.97;5013986;28;20041;-79
2021/12/20 01:54:24;;;;;;;13.95;2.88;;;;;;;5.42;87.04;102804.78;5014061;28;20038;-81
2021/12/20 01:56:50;;;;;;;15.88;3.55;;;;;;;5.25;86.45;102779.31;5014014;28;20029;-81
2021/12/20 01:59:15;;;;;;;13.20;2.25;;;;;;;5.37;88.14;102809.94;5013948;28;20033;-79
2021/12/20 02:01:42;;;;;;;11.60;3.20;;;;;;;5.37;89.38;102794.56;5013990;28;20033;-81
2021/12/20 02:04:09;;;;;;;15.32;2.45;;;;;;;5.36;89.67;102792.88;5013644;28;20477;-81
2021/12/20 02:06:39;;;;;;;16.52;2.17;;;;;;;5.34;89.45;102796.31;5013602;28;20128;-81
2021/12/20 02:09:07;;;;;;;19.55;3.00;;;;;;;5.35;87.15;102795.47;5013894;28;20022;-81
2021/12/20 02:11:33;;;;;;;14.43;2.80;;;;;;;5.35;86.40;102804.00;5013702;28;20033;-81
2021/12/20 02:13:59;;;;;;;17.60;2.92;;;;;;;5.34;88.58;102799.72;5013615;28;20069;-80
2021/12/20 02:16:24;;;;;;;16.05;2.90;;;;;;;5.35;86.17;102801.44;5011382;28;20057;-78
2021/12/20 02:18:50;;;;;;;17.10;3.22;;;;;;;5.31;86.48;102796.34;5013412;28;20025;-80
2021/12/20 02:21:16;;;;;;;15.57;3.00;;;;;;;5.33;85.99;102799.75;5013574;28;20022;-79
2021/12/20 02:23:42;;;;;;;18.08;2.90;;;;;;;5.21;85.61;102776.78;5011944;28;20453;-78
2021/12/20 02:26:11;;;;;;;17.52;2.70;;;;;;;5.29;86.37;102804.03;5013576;28;20026;-80
2021/12/20 02:28:41;;;;;;;18.05;3.03;;;;;;;5.32;86.53;102798.06;5013402;28;20049;-79
2021/12/20 02:39:17;;;;;;;17.60;3.55;;;;;;;5.30;84.11;102782.69;5013215;28;20032;-81
2021/12/20 02:41:42;;;;;;;18.02;3.22;;;;;;;5.31;84.42;102786.09;5013178;28;20026;-81
2021/12/20 02:44:16;;;;;;;19.17;3.78;;;;;;;5.19;84.16;102766.56;5012013;28;20378;-80
2021/12/20 02:49:10;;;;;;;16.33;3.25;;;;;;;5.29;84.71;102791.22;5027981;28;20034;-81
2021/12/20 02:51:36;;;;;;;16.73;3.47;;;;;;;5.24;85.69;102787.88;5012879;28;20033;-78
2021/12/20 02:54:04;;;;;;;22.50;3.03;;;;;;;5.25;85.01;102784.44;5012861;28;20040;-76
2021/12/20 02:56:30;;;;;;;17.83;3.17;;;;;;;5.31;85.20;102789.53;5012903;28;20026;-80
2021/12/20 02:58:55;;;;;;;19.10;2.67;;;;;;;5.32;85.50;102788.66;5012962;28;20030;-80
2021/12/20 03:01:21;;;;;;;23.38;3.40;;;;;;;5.32;85.07;102792.94;5012984;28;20049;-79
2021/12/20 03:03:49;;;;;;;16.80;3.17;;;;;;;5.30;85.21;102792.91;5012899;28;20367;-79
2021/12/20 03:06:20;;;;;;;17.50;3.25;;;;;;;5.27;85.89;102787.84;5011680;28;20041;-77
2021/12/20 03:08:50;;;;;;;17.25;3.30;;;;;;;5.28;85.78;102779.28;5012857;28;20117;-80
2021/12/20 03:11:16;;;;;;;15.80;3.10;;;;;;;5.20;85.04;102773.38;5012743;28;20022;-80
2021/12/20 03:13:45;;;;;;;16.00;3.83;;;;;;;5.24;85.05;102787.88;5011435;28;20416;-81
2021/12/20 03:16:10;;;;;;;16.25;2.80;;;;;;;5.24;85.32;102790.44;5013236;28;20022;-81
2021/12/20 03:18:35;;;;;;;22.45;3.65;;;;;;;5.18;85.91;102785.34;5012803;28;20141;-80
2021/12/20 03:21:00;;;;;;;18.42;3.33;;;;;;;5.19;85.34;102790.47;5012873;28;20054;-81
2021/12/20 03:23:26;;;;;;;14.63;3.75;;;;;;;5.17;85.44;102781.09;5012310;28;20125;-81
2021/12/20 03:25:52;;;;;;;21.00;3.10;;;;;;;5.05;86.34;102770.97;5012734;28;20042;-81
2021/12/20 03:28:17;;;;;;;14.15;3.38;;;;;;;5.16;86.00;102787.94;5014250;28;20121;-78
2021/12/20 03:30:44;;;;;;;18.25;3.17;;;;;;;5.09;86.48;102783.72;5016938;28;20018;-81
2021/12/20 03:33:09;;;;;;;18.60;3.28;;;;;;;4.97;86.59;102775.31;5016653;28;20363;-80
2021/12/20 03:35:34;;;;;;;20.17;4.05;;;;;;;5.07;86.44;102789.72;5016481;28;20037;-79
2021/12/20 03:38:00;;;;;;;20.50;3.55;;;;;;;5.07;86.21;102790.56;5015167;28;20061;-81
2021/12/20 03:40:25;;;;;;;20.25;3.80;;;;;;;5.06;86.20;102791.44;5016471;28;20084;-77
2021/12/20 03:42:51;;;;;;;16.63;3.03;;;;;;;5.08;86.59;102783.75;5016158;28;20068;-80
2021/12/20 03:45:16;;;;;;;21.48;2.75;;;;;;;5.06;85.83;102782.91;5016525;28;20057;-81
2021/12/20 03:47:43;;;;;;;22.83;3.67;;;;;;;5.04;86.19;102789.75;5016630;28;20030;-81
2021/12/20 03:50:10;;;;;;;23.70;4.72;;;;;;;5.03;85.64;102782.94;5016269;28;20030;-81
2021/12/20 03:52:38;;;;;;;23.13;3.65;;;;;;;5.04;85.13;102784.66;5016315;28;20117;-78
2021/12/20 03:55:08;;;;;;;18.10;2.78;;;;;;;4.73;83.88;102736.28;5016008;28;20022;-81
2021/12/20 03:57:34;;;;;;;17.50;3.17;;;;;;;5.04;82.68;102782.94;5016043;28;20030;-79
2021/12/20 03:59:59;;;;;;;19.92;3.28;;;;;;;4.99;83.56;102777.00;5016136;28;20021;-82
2021/12/20 04:02:26;;;;;;;22.17;3.67;;;;;;;5.04;83.64;102788.06;5016253;28;20125;-80
2021/12/20 04:04:51;;;;;;;17.42;2.88;;;;;;;4.93;83.50;102764.25;5016190;28;20053;-78
2021/12/20 04:07:17;;;;;;;15.77;3.00;;;;;;;5.05;82.66;102782.06;5015989;28;20014;-78
2021/12/20 04:09:42;;;;;;;19.33;3.67;;;;;;;5.03;83.05;102786.34;5015946;28;20026;-77
2021/12/20 04:12:08;;;;;;;21.08;3.08;;;;;;;5.04;81.00;102782.94;5015732;28;20469;-79
2021/12/20 04:14:33;;;;;;;18.38;3.40;;;;;;;4.84;81.44;102752.38;5015740;28;20026;-78
2021/12/20 04:16:59;;;;;;;19.42;4.28;;;;;;;5.03;80.92;102776.13;5015841;28;20048;-80
2021/12/20 04:19:24;;;;;;;32.28;4.70;;;;;;;5.04;81.06;102776.97;5015865;28;20037;-82
2021/12/20 04:21:50;;;;;;;19.15;4.15;;;;;;;4.91;80.30;102750.59;5015785;28;20026;-80
2021/12/20 04:24:15;;;;;;;18.70;3.50;;;;;;;5.03;78.79;102776.13;5015342;28;20461;-78
2021/12/20 04:26:40;;;;;;;17.08;3.00;;;;;;;4.86;78.17;102753.22;5015590;28;20100;-78
2021/12/20 04:29:06;;;;;;;16.55;2.70;;;;;;;5.05;79.79;102782.06;5015511;28;20112;-79
2021/12/20 04:31:33;;;;;;;18.58;4.05;;;;;;;4.93;78.43;102764.25;5015716;28;20447;-79
2021/12/20 04:33:58;;;;;;;14.40;2.65;;;;;;;5.01;78.26;102774.41;5015497;28;20030;-74
2021/12/20 04:36:24;;;;;;;22.70;3.78;;;;;;;5.03;78.25;102781.25;5015447;28;20080;-78
2021/12/20 04:38:49;;;;;;;18.17;2.97;;;;;;;5.06;77.80;102775.22;5014655;28;20327;-77
2021/12/20 04:41:14;;;;;;;20.75;2.88;;;;;;;5.06;78.42;102770.97;5015528;28;20069;-78
2021/12/20 04:43:40;;;;;;;16.77;3.25;;;;;;;5.07;78.54;102767.53;5015158;28;20029;-73
2021/12/20 04:46:05;;;;;;;14.35;3.30;;;;;;;5.08;77.91;102781.19;5015427;28;20026;-80
2021/12/20 04:48:31;;;;;;;17.92;3.13;;;;;;;4.80;76.32;102732.78;5015261;28;20112;-73
2021/12/20 04:50:56;;;;;;;17.58;3.63;;;;;;;5.09;76.58;102780.31;5015208;28;20097;-75
2021/12/20 04:53:22;;;;;;;18.48;3.05;;;;;;;5.08;77.80;102779.47;5015101;28;20032;-80
2021/12/20 04:55:47;;;;;;;23.73;3.92;;;;;;;5.06;76.55;102777.78;5014966;28;20026;-79
2021/12/20 04:58:13;;;;;;;17.05;2.97;;;;;;;5.07;77.08;102782.91;5015027;28;20033;-81
2021/12/20 05:00:40;;;;;;;18.50;3.00;;;;;;;5.07;77.49;102785.47;5014970;28;20033;-81
2021/12/20 05:03:07;;;;;;;15.48;2.72;;;;;;;4.99;77.87;102771.88;5015143;28;20408;-81
2021/12/20 05:05:33;;;;;;;18.15;3.20;;;;;;;5.08;77.23;102779.47;5014986;28;20080;-80
2021/12/20 05:07:59;;;;;;;16.67;2.92;;;;;;;5.09;78.01;102790.56;5014893;28;20045;-80
2021/12/20 05:10:26;;;;;;;17.35;2.80;;;;;;;4.96;78.29;102765.94;5014710;28;20065;-78
2021/12/20 05:12:54;;;;;;;28.75;4.18;;;;;;;5.10;78.65;102787.13;5014651;28;20045;-75
2021/12/20 05:15:20;;;;;;;18.65;2.88;;;;;;;4.91;80.08;102763.41;5014623;28;20030;-80
2021/12/20 05:17:46;;;;;;;20.65;3.00;;;;;;;5.07;80.96;102785.47;5015006;28;20037;-81
2021/12/20 05:20:11;;;;;;;20.20;3.35;;;;;;;5.04;82.03;102788.06;5014442;28;20030;-81
2021/12/20 05:22:37;;;;;;;15.05;3.05;;;;;;;5.00;80.22;102788.94;5014401;28;20053;-80
2021/12/20 05:25:03;;;;;;;20.02;3.60;;;;;;;4.83;79.54;102757.53;5014378;28;20470;-80
2021/12/20 05:27:28;;;;;;;19.40;3.60;;;;;;;4.83;80.37;102760.06;5013109;28;20041;-80
2021/12/20 05:29:54;;;;;;;14.35;2.40;;;;;;;5.01;78.91;102784.66;5014258;28;20489;-81
2021/12/20 05:32:19;;;;;;;22.08;3.30;;;;;;;5.02;79.22;102789.78;5014423;28;20032;-80
2021/12/20 05:34:45;;;;;;;16.75;3.53;;;;;;;5.04;78.89;102794.88;5014374;28;20105;-80
2021/12/20 05:37:11;;;;;;;17.40;3.45;;;;;;;4.82;78.65;102761.78;5014447;28;20088;-81
2021/12/20 05:39:36;;;;;;;17.75;3.10;;;;;;;5.05;79.94;102796.59;5014117;28;20030;-81
2021/12/20 05:42:02;;;;;;;17.70;3.45;;;;;;;5.05;81.04;102801.69;5014190;28;20028;-80
2021/12/20 05:44:27;;;;;;;22.02;2.95;;;;;;;4.99;79.16;102792.34;5013961;28;20022;-78
2021/12/20 05:46:53;;;;;;;27.13;4.25;;;;;;;5.00;79.29;102796.59;5014347;28;20113;-80
2021/12/20 05:49:19;;;;;;;19.08;2.85;;;;;;;4.97;79.39;102795.78;5014091;28;20026;-80
2021/12/20 05:51:44;;;;;;;20.15;3.65;;;;;;;4.95;79.83;102792.41;5013435;28;20119;-80
2021/12/20 05:54:09;;;;;;;16.15;3.40;;;;;;;4.90;79.92;102785.59;5014064;28;20087;-81
2021/12/20 05:56:35;;;;;;;21.02;4.03;;;;;;;4.91;80.15;102799.25;5013850;28;20029;-80
2021/12/20 05:59:00;;;;;;;21.70;4.00;;;;;;;4.92;80.30;102797.53;5014030;28;20025;-80
2021/12/20 06:01:25;;;;;;;19.45;3.28;;;;;;;4.82;80.22;102777.16;5013758;28;20473;-81
2021/12/20 06:03:51;;;;;;;19.13;3.22;;;;;;;4.94;81.38;102795.81;5013842;28;20022;-73
2021/12/20 06:06:16;;;;;;;19.50;3.50;;;;;;;4.91;81.22;102794.13;5014023;28;20048;-80
2021/12/20 06:08:41;;;;;;;17.50;3.08;;;;;;;4.90;80.47;102794.97;5013820;28;20033;-74
2021/12/20 06:11:07;;;;;;;18.48;3.42;;;;;;;4.90;78.50;102800.09;5013593;28;20120;-72
2021/12/20 06:13:32;;;;;;;17.63;3.78;;;;;;;4.80;77.50;102783.97;5013705;28;20025;-73
2021/12/20 06:15:58;;;;;;;16.83;4.25;;;;;;;4.88;77.90;102792.44;5012194;28;20545;-71
2021/12/20 06:18:23;;;;;;;15.38;2.30;;;;;;;4.88;76.80;102794.16;5013498;28;20034;-78
2021/12/20 06:20:48;;;;;;;14.07;3.13;;;;;;;4.82;79.47;102794.22;5013427;28;20036;-73
2021/12/20 06:23:14;;;;;;;15.95;3.13;;;;;;;4.76;78.68;102792.53;5013417;28;20053;-80
2021/12/20 06:25:40;;;;;;;17.50;2.85;;;;;;;4.78;78.81;102808.72;5013452;28;20026;-76
2021/12/20 06:28:05;;;;;;;16.52;3.47;;;;;;;4.78;79.73;102802.75;5013403;28;20080;-76
2021/12/20 06:30:31;;;;;;;20.65;3.30;;;;;;;4.77;79.89;102799.34;5013272;28;20022;-76
2021/12/20 06:32:56;;;;;;;18.50;3.45;;;;;;;4.76;80.95;102810.47;5013123;28;20026;-75
2021/12/20 06:35:21;;;;;;;20.23;3.75;;;;;;;4.80;79.05;102811.28;5013149;28;20032;-72
2021/12/20 06:37:57;;;;;;;20.00;3.63;;;;;;;4.78;79.59;102802.75;5013382;28;20036;-74
2021/12/20 06:40:23;;;;;;;16.33;3.08;;;;;;;4.82;80.02;102809.56;5013323;28;20018;-78
2021/12/20 06:42:48;;;;;;;13.90;2.70;;;;;;;4.79;79.95;102807.88;5013684;28;20026;-72
2021/12/20 06:45:13;;;;;;;20.85;3.67;;;;;;;4.81;81.46;102816.38;5013243;28;20033;-72
2021/12/20 06:47:39;;;;;;;19.55;3.83;;;;;;;4.53;80.99;102768.84;5013063;28;20033;-72
2021/12/20 06:50:05;;;;;;;22.00;3.83;;;;;;;4.73;80.71;102809.63;5013031;28;20030;-72
2021/12/20 06:52:30;;;;;;;13.30;3.58;;;;;;;4.67;80.22;102792.59;5013141;28;20022;-80
2021/12/20 06:54:55;;;;;;;21.45;4.18;;;;;;;4.82;79.66;102822.38;5013201;28;20029;-74
2021/12/20 06:57:21;;;;;;;20.88;3.67;;;;;;;4.72;80.65;102807.91;5012786;28;20030;-75
2021/12/20 06:59:47;;;;;;;17.70;3.75;;;;;;;4.83;80.64;102824.06;5012962;28;20105;-72
2021/12/20 07:02:12;;;;;;;21.50;4.13;;;;;;;4.81;80.97;102828.31;5012552;28;20030;-73
2021/12/20 07:04:37;;;;;;;15.25;3.38;;;;;;;4.79;81.05;102828.34;5013181;28;20026;-76
2021/12/20 07:07:03;;;;;;;15.15;3.53;;;;;;;4.75;81.46;102826.69;5012898;28;20559;-74
2021/12/20 07:09:28;;;;;;;20.77;3.55;;;;;;;4.70;81.92;102820.72;5012938;28;20034;-75
2021/12/20 07:11:54;;;;;;;18.92;3.10;;;;;;;4.75;83.47;102836.06;5012840;28;20064;-74
2021/12/20 07:14:20;;;;;;;16.17;3.75;;;;;;;4.57;84.99;102811.44;5012690;28;20076;-79
2021/12/20 07:16:45;;;;;;;19.20;3.20;;;;;;;4.66;85.17;102836.13;5013097;28;20034;-76
2021/12/20 07:19:10;;;;;;;19.75;3.50;;;;;;;4.65;83.08;102826.75;5012717;28;20076;-76
2021/12/20 07:21:36;;;;;;;18.90;3.60;;;;;;;4.59;84.35;102815.69;5027622;28;20044;-81
2021/12/20 07:24:01;;;;;;;23.92;3.35;;;;;;;4.50;83.99;102795.25;5012620;28;20453;-76
2021/12/20 07:26:27;;;;;;;19.77;3.10;;;;;;;4.44;84.61;102800.44;5012547;28;20030;-80
2021/12/20 07:28:52;;;;;;;19.15;2.80;;;;;;;4.66;85.05;102831.84;5012709;28;20052;-72
2021/12/20 07:31:19;;;;;;;18.23;4.10;;;;;;;4.65;83.93;102840.38;5012720;28;20053;-75
2021/12/20 07:33:45;;;;;;;17.47;3.47;;;;;;;4.63;86.30;102837.00;5012723;28;20038;-72
2021/12/20 07:36:14;;;;;;;20.65;3.30;;;;;;;4.53;84.42;102823.41;5012733;28;20105;-81
2021/12/20 07:38:39;;;;;;;17.75;3.63;;;;;;;4.66;84.68;102833.56;5012692;28;20057;-76
2021/12/20 07:41:05;;;;;;;16.35;3.08;;;;;;;4.68;83.85;102834.41;5012448;28;20064;-71
2021/12/20 07:43:30;;;;;;;14.52;3.08;;;;;;;4.67;84.64;102828.44;5012257;28;20022;-80
2021/12/20 07:45:56;;;;;;;19.42;3.40;;;;;;;4.69;83.39;102830.97;5012208;28;20022;-81
2021/12/20 07:48:21;;;;;;;14.77;2.67;;;;;;;4.68;85.76;102825.00;5012217;28;20350;-75
2021/12/20 07:50:48;;;;;;;12.93;2.97;;;;;;;4.68;84.89;102831.84;5012397;28;20021;-79
2021/12/20 07:53:15;;;;;;;14.48;3.20;;;;;;;4.70;85.35;102843.75;5012276;28;20030;-81
2021/12/20 07:55:41;;;;;;;13.65;3.42;;;;;;;4.69;87.04;102846.31;5012026;28;20060;-80
2021/12/20 07:58:07;;;;;;;20.35;3.35;;;;;;;4.70;84.45;102833.50;5011991;28;20022;-80
2021/12/20 08:00:33;;;;;;;17.88;3.42;;;;;;;4.72;84.33;102844.63;5012223;28;20041;-81
2021/12/20 08:02:58;;;;;;;18.25;2.65;;;;;;;4.75;82.93;102843.75;5011126;28;20029;-81
2021/12/20 08:05:25;;;;;;;21.45;2.97;;;;;;;4.64;83.57;102825.06;5012980;28;20141;-76
2021/12/20 08:07:51;;;;;;;20.25;3.30;;;;;;;4.75;83.97;102836.06;5011947;28;20025;-74
2021/12/20 08:10:19;;;;;;;16.58;3.55;;;;;;;4.73;83.30;102843.75;5012160;28;20026;-77
2021/12/20 08:12:45;;;;;;;15.25;3.33;;;;;;;4.76;82.36;102848.84;5011874;28;20073;-72
2021/12/20 08:15:10;;;;;;;17.00;3.00;;;;;;;4.82;83.03;102848.81;5014357;28;20037;-80
2021/12/20 08:17:36;;;;;;;16.55;2.92;;;;;;;4.80;83.38;102842.84;5015340;28;20385;-75
2021/12/20 08:20:02;;;;;;;23.30;4.15;;;;;;;4.83;83.58;102853.06;5015202;28;20057;-73
2021/12/20 08:22:27;;;;;;;18.83;4.07;;;;;;;4.74;83.95;102830.09;5015075;28;20100;-71
2021/12/20 08:24:52;;;;;;;16.83;3.30;;;;;;;4.89;83.23;102855.56;5015205;28;20037;-72
2021/12/20 08:27:18;;;;;;;18.23;4.25;;;;;;;4.90;83.23;102870.06;5015389;28;20033;-72
2021/12/20 08:29:44;;;;;;;21.45;3.33;;;;;;;4.89;83.44;102850.44;5013463;28;20563;-76
2021/12/20 08:32:09;;;;;;;20.75;3.33;;;;;;;4.97;82.13;102855.53;5015270;28;20026;-77
2021/12/20 08:34:35;;;;;;;13.63;2.83;;;;;;;4.93;75.78;102850.44;5015025;28;20331;-73
2021/12/20 08:37:02;;;;;;;16.40;2.72;;;;;;;4.94;76.58;102847.03;5015154;28;20041;-75
2021/12/20 08:39:30;;;;;;;16.10;3.47;;;;;;;5.00;79.51;102854.66;5015136;28;20022;-75
2021/12/20 08:41:56;;;;;;;21.33;3.20;;;;;;;5.03;81.04;102858.06;5014991;28;20029;-77
2021/12/20 08:44:23;;;;;;;21.02;3.78;;;;;;;4.95;80.11;102830.81;5014934;28;20042;-73
2021/12/20 08:46:49;;;;;;;21.38;4.22;;;;;;;5.10;80.01;102859.69;5015021;28;20389;-81
2021/12/20 08:49:14;;;;;;;17.80;3.30;;;;;;;5.09;80.16;102859.69;5014725;28;20108;-79
2021/12/20 08:51:39;;;;;;;15.30;3.42;;;;;;;5.09;80.37;102857.13;5014575;28;20026;-80
2021/12/20 08:54:06;;;;;;;19.60;3.10;;;;;;;5.10;79.96;102854.56;5014625;28;20026;-80
2021/12/20 08:56:32;;;;;;;15.35;2.97;;;;;;;4.94;80.44;102836.78;5014634;28;20052;-81
2021/12/20 08:58:57;;;;;;;16.83;3.40;;;;;;;5.14;79.63;102863.09;5014518;28;20050;-78
2021/12/20 09:01:22;;;;;;;15.75;3.65;;;;;;;5.18;80.78;102863.03;5014391;28;20029;-79
2021/12/20 09:03:48;;;;;;;16.60;3.78;;;;;;;5.24;81.66;102872.41;5014775;28;20029;-81
2021/12/20 09:06:14;;;;;;;18.63;3.78;;;;;;;5.09;81.01;102841.78;5014176;28;20099;-79
2021/12/20 09:08:41;;;;;;;14.85;3.28;;;;;;;5.32;81.12;102867.22;5014528;28;20381;-80
2021/12/20 09:11:07;;;;;;;22.95;3.65;;;;;;;5.26;80.09;102847.63;5014442;28;20049;-80
2021/12/20 09:13:32;;;;;;;15.32;3.35;;;;;;;5.34;80.52;102857.81;5014402;28;20076;-79
2021/12/20 09:15:59;;;;;;;16.23;3.22;;;;;;;5.27;80.60;102851.88;5014407;28;20029;-77
2021/12/20 09:18:27;;;;;;;19.30;3.53;;;;;;;5.34;80.91;102863.78;5014464;28;20389;-80
2021/12/20 09:20:53;;;;;;;14.95;3.40;;;;;;;5.46;80.15;102878.19;5014119;28;20030;-81
2021/12/20 09:23:18;;;;;;;20.45;3.83;;;;;;;5.45;79.55;102876.50;5014221;28;20100;-80
2021/12/20 09:25:46;;;;;;;18.23;3.63;;;;;;;5.50;79.91;102881.56;5014176;28;20034;-81
2021/12/20 09:28:13;;;;;;;25.05;3.42;;;;;;;5.34;80.08;102848.41;5014188;28;20022;-81
2021/12/20 09:30:40;;;;;;;12.88;3.58;;;;;;;5.57;79.45;102883.22;5014180;28;20053;-81
2021/12/20 09:33:06;;;;;;;15.32;4.25;;;;;;;5.60;79.36;102884.03;5013947;28;20095;-81
2021/12/20 09:35:33;;;;;;;26.83;4.60;;;;;;;5.60;79.66;102883.19;5012628;28;20034;-80
2021/12/20 09:37:59;;;;;;;14.80;3.33;;;;;;;5.61;78.21;102890.03;5014076;28;20026;-82
2021/12/20 09:40:33;;;;;;;20.23;4.05;;;;;;;5.56;79.30;102874.69;5014183;28;20030;-79
2021/12/20 09:43:02;;;;;;;24.48;4.07;;;;;;;5.56;79.53;102878.97;5013701;28;20022;-79
2021/12/20 09:45:29;;;;;;;17.17;4.07;;;;;;;5.44;79.18;102855.16;5013771;28;20112;-80
2021/12/20 09:47:54;;;;;;;13.93;3.90;;;;;;;5.73;78.35;102890.75;5013804;28;20029;-76
2021/12/20 09:50:20;;;;;;;19.00;3.90;;;;;;;5.77;79.06;102891.56;5013771;28;20026;-78
2021/12/20 09:52:47;;;;;;;19.42;3.97;;;;;;;5.72;79.20;102875.41;5013933;28;20030;-83
2021/12/20 09:55:15;;;;;;;12.35;3.35;;;;;;;5.87;79.43;102888.03;5013549;28;20030;-82
2021/12/20 09:57:45;;;;;;;18.70;3.25;;;;;;;5.81;78.62;102884.72;5013636;28;20029;-79
2021/12/20 10:00:14;;;;;;;22.80;3.87;;;;;;;5.88;78.17;102900.00;5013447;28;20374;-78
2021/12/20 10:02:43;;;;;;;13.90;2.95;;;;;;;5.75;78.23;102886.44;5013386;28;20382;-81
2021/12/20 10:05:10;;;;;;;11.85;3.47;;;;;;;5.82;79.07;102904.34;5013351;28;20501;-81
2021/12/20 10:07:35;;;;;;;22.15;4.70;;;;;;;5.62;78.67;102864.38;5028260;28;20139;-72
2021/12/20 10:10:03;;;;;;;15.30;3.95;;;;;;;5.81;78.22;102900.09;5013302;28;20018;-77
2021/12/20 10:12:28;;;;;;;19.02;3.67;;;;;;;5.73;79.30;102879.66;5013315;28;20056;-78
2021/12/20 10:15:08;;;;;;;17.25;3.40;;;;;;;5.85;79.92;102897.47;5012745;28;20038;-83
2021/12/20 10:17:55;;;;;;;14.52;3.67;;;;;;;5.89;79.46;102899.13;5011576;28;20080;-82
2021/12/20 10:20:24;;;;;;;13.85;3.95;;;;;;;5.97;79.02;102896.50;5013368;28;20104;-83
2021/12/20 10:23:06;;;;;;;22.13;4.72;;;;;;;5.98;79.75;102899.06;5013188;28;20096;-78
2021/12/20 10:25:31;;;;;;;;;;;;;;;6.01;80.67;102899.03;5013580;28;20038;-78
2021/12/20 10:28:11;;;;;;;20.58;3.50;;;;;;;5.79;79.35;102865.91;5013037;28;19913;-81
2021/12/20 10:30:58;;;;;;;15.98;4.63;;;;;;;6.00;78.63;102899.06;5012702;28;20030;-79
2021/12/20 10:33:25;;;;;;;23.40;4.15;;;;;;;6.04;79.17;102903.28;5012705;28;20042;-80
2021/12/20 10:35:53;;;;;;;16.15;3.70;;;;;;;6.05;77.96;102894.72;5013048;28;20029;-80
2021/12/20 10:38:18;;;;;;;18.92;3.22;;;;;;;6.03;76.80;102893.91;5012544;28;20033;-76
2021/12/20 10:41:01;;;;;;;17.25;3.88;;;;;;;6.06;77.37;102898.13;5011471;28;20033;-78
2021/12/20 10:43:37;;;;;;;20.17;4.03;;;;;;;6.00;77.65;102892.22;5012707;28;20049;-79
2021/12/20 10:46:21;;;;;;;13.05;3.42;;;;;;;6.10;77.48;102897.25;5012777;28;20030;-75
2021/12/20 10:48:50;;;;;;;14.38;3.05;;;;;;;5.94;77.16;102876.03;5011382;28;20041;-77
2021/12/20 10:51:23;;;;;;;14.13;3.60;;;;;;;6.14;77.00;102904.03;5012770;28;20113;-73
2021/12/20 10:53:57;;;;;;;14.90;4.07;;;;;;;6.01;77.21;102883.66;5012768;28;20030;-72
2021/12/20 10:56:23;;;;;;;14.88;3.70;;;;;;;6.13;76.75;102898.06;5012780;28;20021;-72
2021/12/20 10:58:48;;;;;;;16.65;3.60;;;;;;;6.11;77.00;102891.25;5012345;28;20129;-71
2021/12/20 11:01:34;;;;;;;17.27;3.83;;;;;;;6.19;76.70;102886.84;5012555;28;20034;-73
2021/12/20 11:04:08;;;;;;;14.82;3.45;;;;;;;6.20;77.63;102901.41;5012617;28;20054;-74
2021/12/20 11:07:00;;;;;;;18.02;3.47;;;;;;;6.23;75.98;102893.66;5012564;28;20026;-73
2021/12/20 11:09:30;;;;;;;17.02;3.92;;;;;;;6.24;76.43;102897.94;5012621;28;20439;-72
2021/12/20 11:11:59;;;;;;;16.58;3.00;;;;;;;6.27;76.35;102896.16;5012471;28;20023;-73
2021/12/20 11:14:32;;;;;;;14.18;4.30;;;;;;;6.26;75.90;102889.34;5012209;28;20064;-76
2021/12/20 11:16:59;;;;;;;15.15;3.08;;;;;;;6.26;75.00;102889.34;5012637;28;20050;-72
2021/12/20 11:19:28;;;;;;;18.10;4.45;;;;;;;6.28;74.61;102881.63;5012766;28;20076;-75
2021/12/20 11:21:55;;;;;;;17.92;3.58;;;;;;;6.29;75.34;102891.88;5012651;28;20018;-74
2021/12/20 11:24:25;;;;;;;14.95;3.60;;;;;;;6.12;75.65;102868.16;5012407;28;20065;-74
2021/12/20 11:26:52;;;;;;;17.00;4.05;;;;;;;6.09;75.28;102886.13;5012359;28;20434;-73
2021/12/20 11:29:19;;;;;;;15.38;3.75;;;;;;;5.46;75.73;102802.16;5012184;28;20022;-72
2021/12/20 11:31:45;;;;;;;18.95;4.03;;;;;;;5.75;76.59;102873.63;5012225;28;20025;-74
2021/12/20 11:34:11;;;;;;;19.05;3.85;;;;;;;5.66;76.75;102875.44;5012305;28;20062;-77
2021/12/20 11:36:37;;;;;;;20.00;4.45;;;;;;;5.49;77.51;102873.03;5012306;28;20435;-75
2021/12/20 11:39:04;;;;;;;19.92;3.85;;;;;;;5.37;77.92;102871.44;5012278;28;20492;-72
2021/12/20 11:41:30;;;;;;;16.13;4.03;;;;;;;5.35;78.15;102885.13;5027164;28;20030;-76